sensor_id;sensor_type;location;lat;lon;timestamp;temperature;humidity
16118;DHT22;8163;50.118;5.342;2023-07-20T00:00:44;18.10;1.00
16118;DHT22;8163;50.118;5.342;2023-07-20T00:03:13;18.00;1.00
16118;DHT22;8163;50.118;5.342;2023-07-20T00:05:43;17.90;1.00
16118;DHT22;8163;50.118;5.342;2023-07-20T00:08:10;17.90;1.00
16118;DHT22;8163;50.118;5.342;2023-07-20T00:10:38;17.90;1.00
16118;DHT22;8163;50.118;5.342;2023-07-20T00:13:05;17.80;1.00
16118;DHT22;8163;50.118;5.342;2023-07-20T00:15:32;17.80;1.00
16118;DHT22;8163;50.118;5.342;2023-07-20T00:17:58;17.70;1.00
16118;DHT22;8163;50.118;5.342;2023-07-20T00:20:26;17.70;1.00
16118;DHT22;8163;50.118;5.342;2023-07-20T00:22:52;17.70;1.00
16118;DHT22;8163;50.118;5.342;2023-07-20T00:25:20;17.70;1.00
16118;DHT22;8163;50.118;5.342;2023-07-20T00:27:48;17.60;1.00
16118;DHT22;8163;50.118;5.342;2023-07-20T00:30:15;17.60;1.00
16118;DHT22;8163;50.118;5.342;2023-07-20T00:32:43;17.60;1.00
16118;DHT22;8163;50.118;5.342;2023-07-20T00:35:10;17.60;1.00
16118;DHT22;8163;50.118;5.342;2023-07-20T00:37:38;17.60;1.00
16118;DHT22;8163;50.118;5.342;2023-07-20T00:40:06;17.50;1.00
16118;DHT22;8163;50.118;5.342;2023-07-20T00:42:34;17.50;1.00
16118;DHT22;8163;50.118;5.342;2023-07-20T00:45:02;17.40;1.00
16118;DHT22;8163;50.118;5.342;2023-07-20T00:47:31;17.30;1.00
16118;DHT22;8163;50.118;5.342;2023-07-20T00:49:59;17.20;1.00
16118;DHT22;8163;50.118;5.342;2023-07-20T00:52:27;17.20;1.00
16118;DHT22;8163;50.118;5.342;2023-07-20T00:54:56;17.10;1.00
16118;DHT22;8163;50.118;5.342;2023-07-20T00:57:24;17.00;1.00
16118;DHT22;8163;50.118;5.342;2023-07-20T00:59:51;17.00;1.00
16118;DHT22;8163;50.118;5.342;2023-07-20T01:02:20;17.00;1.00
16118;DHT22;8163;50.118;5.342;2023-07-20T01:04:47;16.90;1.00
16118;DHT22;8163;50.118;5.342;2023-07-20T01:07:19;16.90;1.00
16118;DHT22;8163;50.118;5.342;2023-07-20T01:09:56;16.90;1.00
16118;DHT22;8163;50.118;5.342;2023-07-20T01:12:27;16.90;1.00
16118;DHT22;8163;50.118;5.342;2023-07-20T01:14:56;16.80;1.00
16118;DHT22;8163;50.118;5.342;2023-07-20T01:17:24;16.80;1.00
16118;DHT22;8163;50.118;5.342;2023-07-20T01:19:51;16.80;1.00
16118;DHT22;8163;50.118;5.342;2023-07-20T01:22:33;16.80;1.00
16118;DHT22;8163;50.118;5.342;2023-07-20T01:25:21;16.70;1.00
16118;DHT22;8163;50.118;5.342;2023-07-20T01:30:57;16.70;1.00
16118;DHT22;8163;50.118;5.342;2023-07-20T01:33:28;16.60;1.00
16118;DHT22;8163;50.118;5.342;2023-07-20T01:35:58;16.60;1.00
16118;DHT22;8163;50.118;5.342;2023-07-20T01:38:26;16.50;1.00
16118;DHT22;8163;50.118;5.342;2023-07-20T01:40:57;16.50;1.00
16118;DHT22;8163;50.118;5.342;2023-07-20T01:43:24;16.40;1.00
16118;DHT22;8163;50.118;5.342;2023-07-20T01:45:51;16.30;1.00
16118;DHT22;8163;50.118;5.342;2023-07-20T01:48:18;16.30;1.00
16118;DHT22;8163;50.118;5.342;2023-07-20T01:50:46;16.30;1.00
16118;DHT22;8163;50.118;5.342;2023-07-20T01:53:13;16.30;1.00
16118;DHT22;8163;50.118;5.342;2023-07-20T01:55:40;16.20;1.00
16118;DHT22;8163;50.118;5.342;2023-07-20T01:58:07;16.20;1.00
16118;DHT22;8163;50.118;5.342;2023-07-20T02:00:36;16.20;1.00
16118;DHT22;8163;50.118;5.342;2023-07-20T02:03:04;16.10;1.00
16118;DHT22;8163;50.118;5.342;2023-07-20T02:05:30;16.10;1.00
16118;DHT22;8163;50.118;5.342;2023-07-20T02:07:59;16.10;1.00
16118;DHT22;8163;50.118;5.342;2023-07-20T02:10:26;16.00;1.00
16118;DHT22;8163;50.118;5.342;2023-07-20T02:12:53;16.00;1.00
16118;DHT22;8163;50.118;5.342;2023-07-20T02:15:20;16.00;1.00
16118;DHT22;8163;50.118;5.342;2023-07-20T02:17:47;16.00;1.00
16118;DHT22;8163;50.118;5.342;2023-07-20T02:20:14;15.90;1.00
16118;DHT22;8163;50.118;5.342;2023-07-20T02:22:40;15.90;1.00
16118;DHT22;8163;50.118;5.342;2023-07-20T02:25:09;15.80;1.00
16118;DHT22;8163;50.118;5.342;2023-07-20T02:27:37;15.90;1.00
16118;DHT22;8163;50.118;5.342;2023-07-20T02:30:05;15.90;1.00
16118;DHT22;8163;50.118;5.342;2023-07-20T02:32:33;16.00;1.00
16118;DHT22;8163;50.118;5.342;2023-07-20T02:35:00;16.10;1.00
16118;DHT22;8163;50.118;5.342;2023-07-20T02:37:30;16.10;1.00
16118;DHT22;8163;50.118;5.342;2023-07-20T02:39:58;16.10;1.00
16118;DHT22;8163;50.118;5.342;2023-07-20T02:42:26;16.10;1.00
16118;DHT22;8163;50.118;5.342;2023-07-20T02:44:53;16.20;1.00
16118;DHT22;8163;50.118;5.342;2023-07-20T02:47:20;16.20;1.00
16118;DHT22;8163;50.118;5.342;2023-07-20T02:49:47;16.20;1.00
16118;DHT22;8163;50.118;5.342;2023-07-20T02:52:14;16.30;1.00
16118;DHT22;8163;50.118;5.342;2023-07-20T02:54:41;16.30;1.00
16118;DHT22;8163;50.118;5.342;2023-07-20T02:57:08;16.30;1.00
16118;DHT22;8163;50.118;5.342;2023-07-20T02:59:36;16.30;1.00
16118;DHT22;8163;50.118;5.342;2023-07-20T03:02:05;16.30;1.00
16118;DHT22;8163;50.118;5.342;2023-07-20T03:04:35;16.30;1.00
16118;DHT22;8163;50.118;5.342;2023-07-20T03:07:03;16.30;1.00
16118;DHT22;8163;50.118;5.342;2023-07-20T03:09:30;16.30;1.00
16118;DHT22;8163;50.118;5.342;2023-07-20T03:11:57;16.30;1.00
16118;DHT22;8163;50.118;5.342;2023-07-20T03:14:24;16.30;1.00
16118;DHT22;8163;50.118;5.342;2023-07-20T03:16:52;16.20;1.00
16118;DHT22;8163;50.118;5.342;2023-07-20T03:19:19;16.30;1.00
16118;DHT22;8163;50.118;5.342;2023-07-20T03:21:46;16.20;1.00
16118;DHT22;8163;50.118;5.342;2023-07-20T03:24:13;16.20;1.00
16118;DHT22;8163;50.118;5.342;2023-07-20T03:26:40;16.20;1.00
16118;DHT22;8163;50.118;5.342;2023-07-20T03:29:07;16.20;1.00
16118;DHT22;8163;50.118;5.342;2023-07-20T03:31:34;16.20;1.00
16118;DHT22;8163;50.118;5.342;2023-07-20T03:34:02;16.30;1.00
16118;DHT22;8163;50.118;5.342;2023-07-20T03:36:30;16.20;1.00
16118;DHT22;8163;50.118;5.342;2023-07-20T03:38:57;16.30;1.00
16118;DHT22;8163;50.118;5.342;2023-07-20T03:41:24;16.30;1.00
16118;DHT22;8163;50.118;5.342;2023-07-20T03:43:51;16.30;1.00
16118;DHT22;8163;50.118;5.342;2023-07-20T03:46:18;16.30;1.00
16118;DHT22;8163;50.118;5.342;2023-07-20T03:48:45;16.30;1.00
16118;DHT22;8163;50.118;5.342;2023-07-20T03:51:13;16.20;1.00
16118;DHT22;8163;50.118;5.342;2023-07-20T03:53:40;16.20;1.00
16118;DHT22;8163;50.118;5.342;2023-07-20T03:56:08;16.20;1.00
16118;DHT22;8163;50.118;5.342;2023-07-20T03:58:34;16.30;1.00
16118;DHT22;8163;50.118;5.342;2023-07-20T04:01:02;16.20;1.00
16118;DHT22;8163;50.118;5.342;2023-07-20T04:03:29;16.20;1.00
16118;DHT22;8163;50.118;5.342;2023-07-20T04:05:56;16.20;1.00
16118;DHT22;8163;50.118;5.342;2023-07-20T04:08:24;16.20;1.00
16118;DHT22;8163;50.118;5.342;2023-07-20T04:10:52;16.20;1.00
16118;DHT22;8163;50.118;5.342;2023-07-20T04:13:19;16.20;1.00
16118;DHT22;8163;50.118;5.342;2023-07-20T04:15:46;16.20;1.00
16118;DHT22;8163;50.118;5.342;2023-07-20T04:18:12;16.20;1.00
16118;DHT22;8163;50.118;5.342;2023-07-20T04:20:39;16.20;1.00
16118;DHT22;8163;50.118;5.342;2023-07-20T04:23:07;16.20;1.00
16118;DHT22;8163;50.118;5.342;2023-07-20T04:25:35;16.10;1.00
16118;DHT22;8163;50.118;5.342;2023-07-20T04:28:06;16.10;1.00
16118;DHT22;8163;50.118;5.342;2023-07-20T04:30:35;16.10;1.00
16118;DHT22;8163;50.118;5.342;2023-07-20T04:33:03;16.20;1.00
16118;DHT22;8163;50.118;5.342;2023-07-20T04:35:46;16.20;1.00
16118;DHT22;8163;50.118;5.342;2023-07-20T04:38:13;16.20;1.00
16118;DHT22;8163;50.118;5.342;2023-07-20T04:40:42;16.20;1.00
16118;DHT22;8163;50.118;5.342;2023-07-20T04:43:09;16.20;1.00
16118;DHT22;8163;50.118;5.342;2023-07-20T04:45:36;16.20;1.00
16118;DHT22;8163;50.118;5.342;2023-07-20T04:48:05;16.20;1.00
16118;DHT22;8163;50.118;5.342;2023-07-20T04:50:32;16.20;1.00
16118;DHT22;8163;50.118;5.342;2023-07-20T04:52:59;16.20;1.00
16118;DHT22;8163;50.118;5.342;2023-07-20T04:55:27;16.20;1.00
16118;DHT22;8163;50.118;5.342;2023-07-20T04:57:55;16.30;1.00
16118;DHT22;8163;50.118;5.342;2023-07-20T05:00:22;16.30;1.00
16118;DHT22;8163;50.118;5.342;2023-07-20T05:02:49;16.30;1.00
16118;DHT22;8163;50.118;5.342;2023-07-20T05:05:16;16.30;1.00
16118;DHT22;8163;50.118;5.342;2023-07-20T05:07:43;16.30;1.00
16118;DHT22;8163;50.118;5.342;2023-07-20T05:10:11;16.30;1.00
16118;DHT22;8163;50.118;5.342;2023-07-20T05:12:38;16.30;1.00
16118;DHT22;8163;50.118;5.342;2023-07-20T05:15:07;16.30;1.00
16118;DHT22;8163;50.118;5.342;2023-07-20T05:17:34;16.30;1.00
16118;DHT22;8163;50.118;5.342;2023-07-20T05:20:01;16.30;1.00
16118;DHT22;8163;50.118;5.342;2023-07-20T05:22:30;16.30;1.00
16118;DHT22;8163;50.118;5.342;2023-07-20T05:24:57;16.30;1.00
16118;DHT22;8163;50.118;5.342;2023-07-20T05:27:23;16.30;1.00
16118;DHT22;8163;50.118;5.342;2023-07-20T05:29:50;16.40;1.00
16118;DHT22;8163;50.118;5.342;2023-07-20T05:32:19;16.40;1.00
16118;DHT22;8163;50.118;5.342;2023-07-20T05:34:46;16.40;1.00
16118;DHT22;8163;50.118;5.342;2023-07-20T05:37:14;16.50;1.00
16118;DHT22;8163;50.118;5.342;2023-07-20T05:39:41;16.50;1.00
16118;DHT22;8163;50.118;5.342;2023-07-20T05:42:08;16.50;1.00
16118;DHT22;8163;50.118;5.342;2023-07-20T05:44:35;16.70;1.00
16118;DHT22;8163;50.118;5.342;2023-07-20T05:47:02;16.80;1.00
16118;DHT22;8163;50.118;5.342;2023-07-20T05:49:31;16.80;1.00
16118;DHT22;8163;50.118;5.342;2023-07-20T05:51:57;16.80;1.00
16118;DHT22;8163;50.118;5.342;2023-07-20T05:54:24;17.00;1.00
16118;DHT22;8163;50.118;5.342;2023-07-20T05:56:52;17.00;1.00
16118;DHT22;8163;50.118;5.342;2023-07-20T05:59:19;17.00;1.00
16118;DHT22;8163;50.118;5.342;2023-07-20T06:01:46;16.90;1.00
16118;DHT22;8163;50.118;5.342;2023-07-20T06:04:14;16.90;1.00
16118;DHT22;8163;50.118;5.342;2023-07-20T06:06:42;16.90;1.00
16118;DHT22;8163;50.118;5.342;2023-07-20T06:09:09;16.90;1.00
16118;DHT22;8163;50.118;5.342;2023-07-20T06:11:37;16.90;1.00
16118;DHT22;8163;50.118;5.342;2023-07-20T06:14:03;17.00;1.00
16118;DHT22;8163;50.118;5.342;2023-07-20T06:16:30;17.00;1.00
16118;DHT22;8163;50.118;5.342;2023-07-20T06:18:58;17.10;1.00
16118;DHT22;8163;50.118;5.342;2023-07-20T06:21:25;17.10;1.00
16118;DHT22;8163;50.118;5.342;2023-07-20T06:23:53;17.20;1.00
16118;DHT22;8163;50.118;5.342;2023-07-20T06:26:22;17.50;1.00
16118;DHT22;8163;50.118;5.342;2023-07-20T06:28:49;17.80;1.00
16118;DHT22;8163;50.118;5.342;2023-07-20T06:31:17;18.10;1.00
16118;DHT22;8163;50.118;5.342;2023-07-20T06:33:45;19.00;1.00
16118;DHT22;8163;50.118;5.342;2023-07-20T06:36:12;19.10;1.00
16118;DHT22;8163;50.118;5.342;2023-07-20T06:38:39;19.10;1.00
16118;DHT22;8163;50.118;5.342;2023-07-20T06:41:07;19.70;1.00
16118;DHT22;8163;50.118;5.342;2023-07-20T06:43:34;21.10;1.00
16118;DHT22;8163;50.118;5.342;2023-07-20T06:46:01;23.20;1.00
16118;DHT22;8163;50.118;5.342;2023-07-20T06:48:28;24.30;1.00
16118;DHT22;8163;50.118;5.342;2023-07-20T06:50:55;23.60;1.00
16118;DHT22;8163;50.118;5.342;2023-07-20T06:53:22;22.70;1.00
16118;DHT22;8163;50.118;5.342;2023-07-20T06:55:49;22.60;1.00
16118;DHT22;8163;50.118;5.342;2023-07-20T06:58:17;21.90;1.00
16118;DHT22;8163;50.118;5.342;2023-07-20T07:00:44;21.60;1.00
16118;DHT22;8163;50.118;5.342;2023-07-20T07:03:11;21.50;1.00
16118;DHT22;8163;50.118;5.342;2023-07-20T07:05:38;21.00;1.00
16118;DHT22;8163;50.118;5.342;2023-07-20T07:08:05;21.10;1.00
16118;DHT22;8163;50.118;5.342;2023-07-20T07:10:34;22.50;1.00
16118;DHT22;8163;50.118;5.342;2023-07-20T07:13:01;22.00;1.00
16118;DHT22;8163;50.118;5.342;2023-07-20T07:15:29;21.50;1.00
16118;DHT22;8163;50.118;5.342;2023-07-20T07:17:57;21.20;1.00
16118;DHT22;8163;50.118;5.342;2023-07-20T07:20:25;20.80;1.00
16118;DHT22;8163;50.118;5.342;2023-07-20T07:22:52;20.70;1.00
16118;DHT22;8163;50.118;5.342;2023-07-20T07:25:18;20.60;1.00
16118;DHT22;8163;50.118;5.342;2023-07-20T07:27:45;21.20;1.00
16118;DHT22;8163;50.118;5.342;2023-07-20T07:30:13;21.30;1.00
16118;DHT22;8163;50.118;5.342;2023-07-20T07:32:41;21.30;1.00
16118;DHT22;8163;50.118;5.342;2023-07-20T07:35:08;21.70;1.00
16118;DHT22;8163;50.118;5.342;2023-07-20T07:37:35;21.50;1.00
16118;DHT22;8163;50.118;5.342;2023-07-20T07:42:38;21.00;1.00
16118;DHT22;8163;50.118;5.342;2023-07-20T07:45:07;21.00;1.00
16118;DHT22;8163;50.118;5.342;2023-07-20T07:47:35;22.60;1.00
16118;DHT22;8163;50.118;5.342;2023-07-20T07:50:05;25.60;1.00
16118;DHT22;8163;50.118;5.342;2023-07-20T07:52:32;25.50;1.00
16118;DHT22;8163;50.118;5.342;2023-07-20T07:55:01;24.60;1.00
16118;DHT22;8163;50.118;5.342;2023-07-20T07:57:29;25.00;1.00
16118;DHT22;8163;50.118;5.342;2023-07-20T07:59:56;24.40;1.00
16118;DHT22;8163;50.118;5.342;2023-07-20T08:02:24;25.90;1.00
16118;DHT22;8163;50.118;5.342;2023-07-20T08:04:51;27.90;1.00
16118;DHT22;8163;50.118;5.342;2023-07-20T08:07:20;29.10;1.00
16118;DHT22;8163;50.118;5.342;2023-07-20T08:09:47;29.90;1.00
16118;DHT22;8163;50.118;5.342;2023-07-20T08:12:14;30.30;1.00
16118;DHT22;8163;50.118;5.342;2023-07-20T08:14:43;30.90;1.00
16118;DHT22;8163;50.118;5.342;2023-07-20T08:17:10;31.50;1.00
16118;DHT22;8163;50.118;5.342;2023-07-20T08:19:37;31.10;1.00
16118;DHT22;8163;50.118;5.342;2023-07-20T08:22:07;31.30;1.00
16118;DHT22;8163;50.118;5.342;2023-07-20T08:24:39;30.50;1.00
16118;DHT22;8163;50.118;5.342;2023-07-20T08:27:07;29.00;1.00
16118;DHT22;8163;50.118;5.342;2023-07-20T08:29:35;27.90;1.00
16118;DHT22;8163;50.118;5.342;2023-07-20T08:32:02;29.00;1.00
16118;DHT22;8163;50.118;5.342;2023-07-20T08:34:30;28.70;1.00
16118;DHT22;8163;50.118;5.342;2023-07-20T08:36:57;27.90;1.00
16118;DHT22;8163;50.118;5.342;2023-07-20T08:39:24;28.70;1.00
16118;DHT22;8163;50.118;5.342;2023-07-20T08:41:52;30.00;1.00
16118;DHT22;8163;50.118;5.342;2023-07-20T08:44:20;30.80;1.00
16118;DHT22;8163;50.118;5.342;2023-07-20T08:46:49;31.30;1.00
16118;DHT22;8163;50.118;5.342;2023-07-20T08:49:17;31.60;1.00
16118;DHT22;8163;50.118;5.342;2023-07-20T08:51:45;31.90;1.00
16118;DHT22;8163;50.118;5.342;2023-07-20T08:54:16;31.30;1.00
16118;DHT22;8163;50.118;5.342;2023-07-20T08:56:45;30.20;1.00
16118;DHT22;8163;50.118;5.342;2023-07-20T08:59:16;29.00;1.00
16118;DHT22;8163;50.118;5.342;2023-07-20T09:01:44;28.30;1.00
16118;DHT22;8163;50.118;5.342;2023-07-20T09:04:12;27.80;1.00
16118;DHT22;8163;50.118;5.342;2023-07-20T09:06:40;28.30;1.00
16118;DHT22;8163;50.118;5.342;2023-07-20T09:09:07;29.50;1.00
16118;DHT22;8163;50.118;5.342;2023-07-20T09:11:34;30.50;1.00
16118;DHT22;8163;50.118;5.342;2023-07-20T09:14:05;31.00;1.00
16118;DHT22;8163;50.118;5.342;2023-07-20T09:16:47;31.10;1.00
16118;DHT22;8163;50.118;5.342;2023-07-20T09:19:15;30.70;1.00
16118;DHT22;8163;50.118;5.342;2023-07-20T09:21:45;30.70;1.00
16118;DHT22;8163;50.118;5.342;2023-07-20T09:24:13;30.70;1.00
16118;DHT22;8163;50.118;5.342;2023-07-20T09:26:42;30.90;1.00
16118;DHT22;8163;50.118;5.342;2023-07-20T09:29:10;31.10;1.00
16118;DHT22;8163;50.118;5.342;2023-07-20T09:31:38;31.30;1.00
16118;DHT22;8163;50.118;5.342;2023-07-20T09:34:06;31.70;1.00
16118;DHT22;8163;50.118;5.342;2023-07-20T09:36:35;31.90;1.00
16118;DHT22;8163;50.118;5.342;2023-07-20T09:39:03;32.00;1.00
16118;DHT22;8163;50.118;5.342;2023-07-20T09:41:39;32.00;1.00
16118;DHT22;8163;50.118;5.342;2023-07-20T09:44:07;31.90;1.00
16118;DHT22;8163;50.118;5.342;2023-07-20T09:46:44;31.90;1.00
16118;DHT22;8163;50.118;5.342;2023-07-20T09:49:12;31.90;1.00
16118;DHT22;8163;50.118;5.342;2023-07-20T09:51:41;31.70;1.00
16118;DHT22;8163;50.118;5.342;2023-07-20T09:54:09;31.40;1.00
16118;DHT22;8163;50.118;5.342;2023-07-20T09:56:40;31.40;1.00
16118;DHT22;8163;50.118;5.342;2023-07-20T09:59:07;31.50;1.00
16118;DHT22;8163;50.118;5.342;2023-07-20T10:01:34;31.60;1.00
16118;DHT22;8163;50.118;5.342;2023-07-20T10:04:07;31.70;1.00
16118;DHT22;8163;50.118;5.342;2023-07-20T10:06:36;32.10;1.00
16118;DHT22;8163;50.118;5.342;2023-07-20T10:09:06;32.20;1.00
16118;DHT22;8163;50.118;5.342;2023-07-20T10:11:36;32.30;1.00
16118;DHT22;8163;50.118;5.342;2023-07-20T10:14:04;32.10;1.00
16118;DHT22;8163;50.118;5.342;2023-07-20T10:16:35;32.10;1.00
16118;DHT22;8163;50.118;5.342;2023-07-20T10:19:07;32.00;1.00
16118;DHT22;8163;50.118;5.342;2023-07-20T10:21:42;31.90;1.00
16118;DHT22;8163;50.118;5.342;2023-07-20T10:24:13;32.10;1.00
16118;DHT22;8163;50.118;5.342;2023-07-20T10:26:40;32.30;1.00
16118;DHT22;8163;50.118;5.342;2023-07-20T10:29:08;32.30;1.00
16118;DHT22;8163;50.118;5.342;2023-07-20T10:31:37;32.00;1.00
16118;DHT22;8163;50.118;5.342;2023-07-20T10:34:06;31.90;1.00
16118;DHT22;8163;50.118;5.342;2023-07-20T10:36:33;31.80;1.00
16118;DHT22;8163;50.118;5.342;2023-07-20T10:39:22;31.80;1.00
16118;DHT22;8163;50.118;5.342;2023-07-20T10:41:49;31.90;1.00
16118;DHT22;8163;50.118;5.342;2023-07-20T10:44:20;32.00;1.00
16118;DHT22;8163;50.118;5.342;2023-07-20T10:46:47;32.20;1.00
16118;DHT22;8163;50.118;5.342;2023-07-20T10:49:15;32.40;1.00
16118;DHT22;8163;50.118;5.342;2023-07-20T10:51:43;32.60;1.00
16118;DHT22;8163;50.118;5.342;2023-07-20T10:54:35;32.70;1.00
16118;DHT22;8163;50.118;5.342;2023-07-20T10:57:27;32.50;1.00
16118;DHT22;8163;50.118;5.342;2023-07-20T11:00:08;31.70;1.00
16118;DHT22;8163;50.118;5.342;2023-07-20T11:02:44;31.70;1.00
16118;DHT22;8163;50.118;5.342;2023-07-20T11:05:35;32.00;1.00
16118;DHT22;8163;50.118;5.342;2023-07-20T11:08:09;32.30;1.00
16118;DHT22;8163;50.118;5.342;2023-07-20T11:10:37;32.50;1.00
16118;DHT22;8163;50.118;5.342;2023-07-20T11:13:21;32.80;1.00
16118;DHT22;8163;50.118;5.342;2023-07-20T11:16:02;32.40;1.00
16118;DHT22;8163;50.118;5.342;2023-07-20T11:18:30;32.60;1.00
16118;DHT22;8163;50.118;5.342;2023-07-20T11:21:00;32.00;1.00
16118;DHT22;8163;50.118;5.342;2023-07-20T11:23:29;32.20;1.00
16118;DHT22;8163;50.118;5.342;2023-07-20T11:25:58;32.40;1.00
16118;DHT22;8163;50.118;5.342;2023-07-20T11:28:26;32.60;1.00
16118;DHT22;8163;50.118;5.342;2023-07-20T11:30:56;32.80;1.00
16118;DHT22;8163;50.118;5.342;2023-07-20T11:33:23;33.10;1.00
16118;DHT22;8163;50.118;5.342;2023-07-20T11:35:50;33.30;1.00
16118;DHT22;8163;50.118;5.342;2023-07-20T11:38:20;33.30;1.00
16118;DHT22;8163;50.118;5.342;2023-07-20T11:40:48;33.30;1.00
16118;DHT22;8163;50.118;5.342;2023-07-20T11:43:18;33.40;1.00
16118;DHT22;8163;50.118;5.342;2023-07-20T11:45:46;33.40;1.00
16118;DHT22;8163;50.118;5.342;2023-07-20T11:48:17;33.30;1.00
16118;DHT22;8163;50.118;5.342;2023-07-20T11:50:44;33.30;1.00
16118;DHT22;8163;50.118;5.342;2023-07-20T11:53:11;33.40;1.00
16118;DHT22;8163;50.118;5.342;2023-07-20T11:55:39;33.50;1.00
16118;DHT22;8163;50.118;5.342;2023-07-20T11:58:09;33.50;1.00
16118;DHT22;8163;50.118;5.342;2023-07-20T12:00:37;33.50;1.00
16118;DHT22;8163;50.118;5.342;2023-07-20T12:03:06;33.60;1.00
16118;DHT22;8163;50.118;5.342;2023-07-20T12:05:33;33.70;1.00
16118;DHT22;8163;50.118;5.342;2023-07-20T12:08:00;33.50;1.00
16118;DHT22;8163;50.118;5.342;2023-07-20T12:10:28;32.80;1.00
16118;DHT22;8163;50.118;5.342;2023-07-20T12:13:01;32.20;1.00
16118;DHT22;8163;50.118;5.342;2023-07-20T12:15:29;31.90;1.00
16118;DHT22;8163;50.118;5.342;2023-07-20T12:17:58;31.50;1.00
16118;DHT22;8163;50.118;5.342;2023-07-20T12:20:27;31.30;1.00
16118;DHT22;8163;50.118;5.342;2023-07-20T12:22:57;30.80;1.00
16118;DHT22;8163;50.118;5.342;2023-07-20T12:25:33;30.40;1.00
16118;DHT22;8163;50.118;5.342;2023-07-20T12:28:02;30.00;1.00
16118;DHT22;8163;50.118;5.342;2023-07-20T12:30:31;29.90;1.00
16118;DHT22;8163;50.118;5.342;2023-07-20T12:32:59;29.80;1.00
16118;DHT22;8163;50.118;5.342;2023-07-20T12:35:27;30.00;1.00
16118;DHT22;8163;50.118;5.342;2023-07-20T12:37:54;30.40;1.00
16118;DHT22;8163;50.118;5.342;2023-07-20T12:40:21;30.40;1.00
16118;DHT22;8163;50.118;5.342;2023-07-20T12:42:48;30.40;1.00
16118;DHT22;8163;50.118;5.342;2023-07-20T12:45:16;30.80;1.00
16118;DHT22;8163;50.118;5.342;2023-07-20T12:47:44;30.80;1.00
16118;DHT22;8163;50.118;5.342;2023-07-20T12:50:11;30.50;1.00
16118;DHT22;8163;50.118;5.342;2023-07-20T12:52:41;30.20;1.00
16118;DHT22;8163;50.118;5.342;2023-07-20T13:31:41;27.30;1.00
16118;DHT22;8163;50.118;5.342;2023-07-20T13:34:10;27.30;1.00
16118;DHT22;8163;50.118;5.342;2023-07-20T13:36:37;27.40;1.00
16118;DHT22;8163;50.118;5.342;2023-07-20T13:39:04;27.60;1.00
16118;DHT22;8163;50.118;5.342;2023-07-20T13:41:33;27.70;1.00
16118;DHT22;8163;50.118;5.342;2023-07-20T13:44:00;27.70;1.00
16118;DHT22;8163;50.118;5.342;2023-07-20T13:46:27;27.70;1.00
16118;DHT22;8163;50.118;5.342;2023-07-20T13:49:02;27.60;1.00
16118;DHT22;8163;50.118;5.342;2023-07-20T13:51:29;27.50;1.00
16118;DHT22;8163;50.118;5.342;2023-07-20T13:53:57;27.50;1.00
16118;DHT22;8163;50.118;5.342;2023-07-20T13:56:30;27.40;1.00
16118;DHT22;8163;50.118;5.342;2023-07-20T13:58:58;27.40;1.00
16118;DHT22;8163;50.118;5.342;2023-07-20T14:01:25;27.40;1.00
16118;DHT22;8163;50.118;5.342;2023-07-20T14:03:54;27.60;1.00
16118;DHT22;8163;50.118;5.342;2023-07-20T14:06:22;27.80;1.00
16118;DHT22;8163;50.118;5.342;2023-07-20T14:08:49;28.00;1.00
16118;DHT22;8163;50.118;5.342;2023-07-20T14:11:19;28.00;1.00
16118;DHT22;8163;50.118;5.342;2023-07-20T14:13:46;28.20;1.00
16118;DHT22;8163;50.118;5.342;2023-07-20T14:16:14;28.30;1.00
16118;DHT22;8163;50.118;5.342;2023-07-20T14:18:43;28.50;1.00
16118;DHT22;8163;50.118;5.342;2023-07-20T14:21:12;28.50;1.00
16118;DHT22;8163;50.118;5.342;2023-07-20T14:23:41;28.40;1.00
16118;DHT22;8163;50.118;5.342;2023-07-20T14:26:09;28.10;1.00
16118;DHT22;8163;50.118;5.342;2023-07-20T14:28:36;28.00;1.00
16118;DHT22;8163;50.118;5.342;2023-07-20T14:31:03;27.90;1.00
16118;DHT22;8163;50.118;5.342;2023-07-20T14:33:30;27.90;1.00
16118;DHT22;8163;50.118;5.342;2023-07-20T14:35:57;27.90;1.00
16118;DHT22;8163;50.118;5.342;2023-07-20T14:38:27;27.60;1.00
16118;DHT22;8163;50.118;5.342;2023-07-20T14:40:56;27.60;1.00
16118;DHT22;8163;50.118;5.342;2023-07-20T14:43:23;27.60;1.00
16118;DHT22;8163;50.118;5.342;2023-07-20T14:45:50;27.70;1.00
16118;DHT22;8163;50.118;5.342;2023-07-20T14:48:17;27.70;1.00
16118;DHT22;8163;50.118;5.342;2023-07-20T14:50:44;27.80;1.00
16118;DHT22;8163;50.118;5.342;2023-07-20T14:53:12;27.70;1.00
16118;DHT22;8163;50.118;5.342;2023-07-20T14:55:41;27.60;1.00
16118;DHT22;8163;50.118;5.342;2023-07-20T14:58:09;27.70;1.00
16118;DHT22;8163;50.118;5.342;2023-07-20T15:00:36;27.80;1.00
16118;DHT22;8163;50.118;5.342;2023-07-20T15:03:03;27.80;1.00
16118;DHT22;8163;50.118;5.342;2023-07-20T15:05:31;27.80;1.00
16118;DHT22;8163;50.118;5.342;2023-07-20T15:07:58;27.70;1.00
16118;DHT22;8163;50.118;5.342;2023-07-20T15:10:27;27.40;1.00
16118;DHT22;8163;50.118;5.342;2023-07-20T15:12:54;27.20;1.00
16118;DHT22;8163;50.118;5.342;2023-07-20T15:15:23;27.10;1.00
16118;DHT22;8163;50.118;5.342;2023-07-20T15:17:50;27.10;1.00
16118;DHT22;8163;50.118;5.342;2023-07-20T15:20:18;27.20;1.00
16118;DHT22;8163;50.118;5.342;2023-07-20T15:22:45;27.30;1.00
16118;DHT22;8163;50.118;5.342;2023-07-20T15:25:12;27.30;1.00
16118;DHT22;8163;50.118;5.342;2023-07-20T15:27:39;27.30;1.00
16118;DHT22;8163;50.118;5.342;2023-07-20T15:30:10;27.40;1.00
16118;DHT22;8163;50.118;5.342;2023-07-20T15:32:39;27.40;1.00
16118;DHT22;8163;50.118;5.342;2023-07-20T15:35:09;27.40;1.00
16118;DHT22;8163;50.118;5.342;2023-07-20T15:37:36;27.30;1.00
16118;DHT22;8163;50.118;5.342;2023-07-20T15:40:05;27.20;1.00
16118;DHT22;8163;50.118;5.342;2023-07-20T15:42:32;27.10;1.00
16118;DHT22;8163;50.118;5.342;2023-07-20T15:44:59;27.10;1.00
16118;DHT22;8163;50.118;5.342;2023-07-20T15:47:26;27.10;1.00
16118;DHT22;8163;50.118;5.342;2023-07-20T15:49:56;27.10;1.00
16118;DHT22;8163;50.118;5.342;2023-07-20T15:52:23;27.10;1.00
16118;DHT22;8163;50.118;5.342;2023-07-20T15:54:50;27.00;1.00
16118;DHT22;8163;50.118;5.342;2023-07-20T15:57:18;27.00;1.00
16118;DHT22;8163;50.118;5.342;2023-07-20T15:59:45;26.70;1.00
16118;DHT22;8163;50.118;5.342;2023-07-20T16:02:13;26.60;1.00
16118;DHT22;8163;50.118;5.342;2023-07-20T16:04:41;26.60;1.00
16118;DHT22;8163;50.118;5.342;2023-07-20T16:07:12;26.60;1.00
16118;DHT22;8163;50.118;5.342;2023-07-20T16:09:40;26.60;1.00
16118;DHT22;8163;50.118;5.342;2023-07-20T16:12:07;26.60;1.00
16118;DHT22;8163;50.118;5.342;2023-07-20T16:14:34;26.60;1.00
16118;DHT22;8163;50.118;5.342;2023-07-20T16:17:01;26.60;1.00
16118;DHT22;8163;50.118;5.342;2023-07-20T16:19:29;26.40;1.00
16118;DHT22;8163;50.118;5.342;2023-07-20T16:21:56;26.50;1.00
16118;DHT22;8163;50.118;5.342;2023-07-20T16:24:26;26.40;1.00
16118;DHT22;8163;50.118;5.342;2023-07-20T16:26:53;26.30;1.00
16118;DHT22;8163;50.118;5.342;2023-07-20T16:29:20;26.30;1.00
16118;DHT22;8163;50.118;5.342;2023-07-20T16:31:50;26.20;1.00
16118;DHT22;8163;50.118;5.342;2023-07-20T16:34:17;26.30;1.00
16118;DHT22;8163;50.118;5.342;2023-07-20T16:36:43;26.20;1.00
16118;DHT22;8163;50.118;5.342;2023-07-20T16:39:11;26.20;1.00
16118;DHT22;8163;50.118;5.342;2023-07-20T16:41:39;26.20;1.00
16118;DHT22;8163;50.118;5.342;2023-07-20T16:44:06;26.20;1.00
16118;DHT22;8163;50.118;5.342;2023-07-20T16:46:33;26.10;1.00
16118;DHT22;8163;50.118;5.342;2023-07-20T16:49:00;26.10;1.00
16118;DHT22;8163;50.118;5.342;2023-07-20T16:51:32;26.00;1.00